sensor_id;sensor_type;location;lat;lon;timestamp;temperature;humidity
17346;DHT22;8790;53.590;10.002;2022-09-02T00:01:11;16.40;99.90
17346;DHT22;8790;53.590;10.002;2022-09-02T00:03:44;16.40;99.90
17346;DHT22;8790;53.590;10.002;2022-09-02T00:06:18;16.30;99.90
17346;DHT22;8790;53.590;10.002;2022-09-02T00:08:50;16.30;99.90
17346;DHT22;8790;53.590;10.002;2022-09-02T00:11:25;16.30;99.90
17346;DHT22;8790;53.590;10.002;2022-09-02T00:13:59;16.30;99.90
17346;DHT22;8790;53.590;10.002;2022-09-02T00:16:32;16.30;99.90
17346;DHT22;8790;53.590;10.002;2022-09-02T00:19:04;16.30;99.90
17346;DHT22;8790;53.590;10.002;2022-09-02T00:21:37;16.20;99.90
17346;DHT22;8790;53.590;10.002;2022-09-02T00:24:09;16.20;99.90
17346;DHT22;8790;53.590;10.002;2022-09-02T00:26:40;16.20;99.90
17346;DHT22;8790;53.590;10.002;2022-09-02T00:29:13;16.20;99.90
17346;DHT22;8790;53.590;10.002;2022-09-02T00:31:45;16.20;99.90
17346;DHT22;8790;53.590;10.002;2022-09-02T00:34:17;16.20;99.90
17346;DHT22;8790;53.590;10.002;2022-09-02T00:36:51;16.10;99.90
17346;DHT22;8790;53.590;10.002;2022-09-02T00:39:23;16.10;99.90
17346;DHT22;8790;53.590;10.002;2022-09-02T00:41:55;16.10;99.90
17346;DHT22;8790;53.590;10.002;2022-09-02T00:44:27;16.10;99.90
17346;DHT22;8790;53.590;10.002;2022-09-02T00:46:59;16.00;99.90
17346;DHT22;8790;53.590;10.002;2022-09-02T00:49:33;16.00;99.90
17346;DHT22;8790;53.590;10.002;2022-09-02T00:52:11;16.00;99.90
17346;DHT22;8790;53.590;10.002;2022-09-02T00:54:49;15.90;99.90
17346;DHT22;8790;53.590;10.002;2022-09-02T00:57:28;16.00;99.90
17346;DHT22;8790;53.590;10.002;2022-09-02T01:00:05;15.90;99.90
17346;DHT22;8790;53.590;10.002;2022-09-02T01:02:40;15.90;99.90
17346;DHT22;8790;53.590;10.002;2022-09-02T01:05:15;15.90;99.90
17346;DHT22;8790;53.590;10.002;2022-09-02T01:07:50;15.90;99.90
17346;DHT22;8790;53.590;10.002;2022-09-02T01:10:25;15.80;99.90
17346;DHT22;8790;53.590;10.002;2022-09-02T01:13:01;15.80;99.90
17346;DHT22;8790;53.590;10.002;2022-09-02T01:15:38;15.80;99.90
17346;DHT22;8790;53.590;10.002;2022-09-02T01:18:14;15.80;99.90
17346;DHT22;8790;53.590;10.002;2022-09-02T01:20:46;15.80;99.90
17346;DHT22;8790;53.590;10.002;2022-09-02T01:23:22;15.80;99.90
17346;DHT22;8790;53.590;10.002;2022-09-02T01:25:55;15.80;99.90
17346;DHT22;8790;53.590;10.002;2022-09-02T01:28:28;15.80;99.90
17346;DHT22;8790;53.590;10.002;2022-09-02T01:31:03;15.80;99.90
17346;DHT22;8790;53.590;10.002;2022-09-02T01:33:35;15.80;99.90
17346;DHT22;8790;53.590;10.002;2022-09-02T01:36:07;15.70;99.90
17346;DHT22;8790;53.590;10.002;2022-09-02T01:38:40;15.70;99.90
17346;DHT22;8790;53.590;10.002;2022-09-02T01:41:12;15.70;99.90
17346;DHT22;8790;53.590;10.002;2022-09-02T01:43:44;15.70;99.90
17346;DHT22;8790;53.590;10.002;2022-09-02T01:46:16;15.70;99.90
17346;DHT22;8790;53.590;10.002;2022-09-02T01:48:48;15.70;99.90
17346;DHT22;8790;53.590;10.002;2022-09-02T01:51:20;15.70;99.90
17346;DHT22;8790;53.590;10.002;2022-09-02T01:53:53;15.70;99.90
17346;DHT22;8790;53.590;10.002;2022-09-02T01:56:25;15.70;99.90
17346;DHT22;8790;53.590;10.002;2022-09-02T01:58:57;15.60;99.90
17346;DHT22;8790;53.590;10.002;2022-09-02T02:01:29;15.70;99.90
17346;DHT22;8790;53.590;10.002;2022-09-02T02:04:01;15.60;99.90
17346;DHT22;8790;53.590;10.002;2022-09-02T02:06:33;15.60;99.90
17346;DHT22;8790;53.590;10.002;2022-09-02T02:09:07;15.60;99.90
17346;DHT22;8790;53.590;10.002;2022-09-02T02:11:39;15.60;99.90
17346;DHT22;8790;53.590;10.002;2022-09-02T02:14:11;15.60;99.90
17346;DHT22;8790;53.590;10.002;2022-09-02T02:16:50;15.60;99.90
17346;DHT22;8790;53.590;10.002;2022-09-02T02:19:22;15.60;99.90
17346;DHT22;8790;53.590;10.002;2022-09-02T02:21:54;15.60;99.90
17346;DHT22;8790;53.590;10.002;2022-09-02T02:24:27;15.60;99.90
17346;DHT22;8790;53.590;10.002;2022-09-02T02:26:59;15.60;99.90
17346;DHT22;8790;53.590;10.002;2022-09-02T02:29:31;15.50;99.90
17346;DHT22;8790;53.590;10.002;2022-09-02T02:32:03;15.50;99.90
17346;DHT22;8790;53.590;10.002;2022-09-02T02:34:37;15.50;99.90
17346;DHT22;8790;53.590;10.002;2022-09-02T02:37:09;15.50;99.90
17346;DHT22;8790;53.590;10.002;2022-09-02T02:39:43;15.50;99.90
17346;DHT22;8790;53.590;10.002;2022-09-02T02:42:15;15.50;99.90
17346;DHT22;8790;53.590;10.002;2022-09-02T02:44:47;15.50;99.90
17346;DHT22;8790;53.590;10.002;2022-09-02T02:47:19;15.40;99.90
17346;DHT22;8790;53.590;10.002;2022-09-02T02:49:50;15.40;99.90
17346;DHT22;8790;53.590;10.002;2022-09-02T02:52:22;15.40;99.90
17346;DHT22;8790;53.590;10.002;2022-09-02T02:54:57;15.40;99.90
17346;DHT22;8790;53.590;10.002;2022-09-02T02:57:29;15.40;99.90
17346;DHT22;8790;53.590;10.002;2022-09-02T03:00:04;15.30;99.90
17346;DHT22;8790;53.590;10.002;2022-09-02T03:02:36;15.30;99.90
17346;DHT22;8790;53.590;10.002;2022-09-02T03:05:10;15.30;99.90
17346;DHT22;8790;53.590;10.002;2022-09-02T03:07:42;15.30;99.90
17346;DHT22;8790;53.590;10.002;2022-09-02T03:10:18;15.30;99.90
17346;DHT22;8790;53.590;10.002;2022-09-02T03:12:51;15.30;99.90
17346;DHT22;8790;53.590;10.002;2022-09-02T03:15:25;15.20;99.90
17346;DHT22;8790;53.590;10.002;2022-09-02T03:17:57;15.20;99.90
17346;DHT22;8790;53.590;10.002;2022-09-02T03:20:30;15.20;99.90
17346;DHT22;8790;53.590;10.002;2022-09-02T03:23:07;15.10;99.90
17346;DHT22;8790;53.590;10.002;2022-09-02T03:25:43;15.00;99.90
17346;DHT22;8790;53.590;10.002;2022-09-02T03:28:27;15.00;99.90
17346;DHT22;8790;53.590;10.002;2022-09-02T03:30:59;15.00;99.90
17346;DHT22;8790;53.590;10.002;2022-09-02T03:33:32;15.00;99.90
17346;DHT22;8790;53.590;10.002;2022-09-02T03:36:04;15.00;99.90
17346;DHT22;8790;53.590;10.002;2022-09-02T03:38:36;14.90;99.90
17346;DHT22;8790;53.590;10.002;2022-09-02T03:41:09;14.90;99.90
17346;DHT22;8790;53.590;10.002;2022-09-02T03:43:40;14.90;99.90
17346;DHT22;8790;53.590;10.002;2022-09-02T03:46:12;14.90;99.90
17346;DHT22;8790;53.590;10.002;2022-09-02T03:48:45;15.00;99.90
17346;DHT22;8790;53.590;10.002;2022-09-02T03:51:18;14.90;99.90
17346;DHT22;8790;53.590;10.002;2022-09-02T03:53:51;14.90;99.90
17346;DHT22;8790;53.590;10.002;2022-09-02T03:56:24;14.90;99.90
17346;DHT22;8790;53.590;10.002;2022-09-02T03:58:56;14.90;99.90
17346;DHT22;8790;53.590;10.002;2022-09-02T04:01:30;14.80;99.90
17346;DHT22;8790;53.590;10.002;2022-09-02T04:04:02;14.90;99.90
17346;DHT22;8790;53.590;10.002;2022-09-02T04:06:35;14.90;99.90
17346;DHT22;8790;53.590;10.002;2022-09-02T04:09:07;14.90;99.90
17346;DHT22;8790;53.590;10.002;2022-09-02T04:11:44;14.90;99.90
17346;DHT22;8790;53.590;10.002;2022-09-02T04:14:16;14.90;99.90
17346;DHT22;8790;53.590;10.002;2022-09-02T04:16:48;14.80;99.90
17346;DHT22;8790;53.590;10.002;2022-09-02T04:19:20;14.80;99.90
17346;DHT22;8790;53.590;10.002;2022-09-02T04:21:53;14.80;99.90
17346;DHT22;8790;53.590;10.002;2022-09-02T04:24:25;14.80;99.90
17346;DHT22;8790;53.590;10.002;2022-09-02T04:26:58;14.80;99.90
17346;DHT22;8790;53.590;10.002;2022-09-02T04:29:30;14.80;99.90
17346;DHT22;8790;53.590;10.002;2022-09-02T04:32:04;14.80;99.90
17346;DHT22;8790;53.590;10.002;2022-09-02T04:34:36;14.70;99.90
17346;DHT22;8790;53.590;10.002;2022-09-02T04:37:09;14.70;99.90
17346;DHT22;8790;53.590;10.002;2022-09-02T04:39:42;14.70;99.90
17346;DHT22;8790;53.590;10.002;2022-09-02T04:42:16;14.80;99.90
17346;DHT22;8790;53.590;10.002;2022-09-02T04:44:48;14.80;99.90
17346;DHT22;8790;53.590;10.002;2022-09-02T04:47:22;14.80;99.90
17346;DHT22;8790;53.590;10.002;2022-09-02T04:49:56;14.80;99.90
17346;DHT22;8790;53.590;10.002;2022-09-02T04:52:28;14.80;99.90
17346;DHT22;8790;53.590;10.002;2022-09-02T04:55:00;14.80;99.90
17346;DHT22;8790;53.590;10.002;2022-09-02T04:57:35;14.70;99.90
17346;DHT22;8790;53.590;10.002;2022-09-02T05:00:09;14.80;99.90
17346;DHT22;8790;53.590;10.002;2022-09-02T05:02:41;14.80;99.90
17346;DHT22;8790;53.590;10.002;2022-09-02T05:05:15;14.80;99.90
17346;DHT22;8790;53.590;10.002;2022-09-02T05:07:46;14.80;99.90
17346;DHT22;8790;53.590;10.002;2022-09-02T05:10:20;14.80;99.90
17346;DHT22;8790;53.590;10.002;2022-09-02T05:12:53;14.80;99.90
17346;DHT22;8790;53.590;10.002;2022-09-02T05:15:25;14.80;99.90
17346;DHT22;8790;53.590;10.002;2022-09-02T05:17:58;14.80;99.90
17346;DHT22;8790;53.590;10.002;2022-09-02T05:20:30;14.80;99.90
17346;DHT22;8790;53.590;10.002;2022-09-02T05:23:03;14.80;99.90
17346;DHT22;8790;53.590;10.002;2022-09-02T05:25:35;14.80;99.90
17346;DHT22;8790;53.590;10.002;2022-09-02T05:28:08;14.80;99.90
17346;DHT22;8790;53.590;10.002;2022-09-02T05:30:41;14.80;99.90
17346;DHT22;8790;53.590;10.002;2022-09-02T05:33:14;14.80;99.90
17346;DHT22;8790;53.590;10.002;2022-09-02T05:35:48;14.80;99.90
17346;DHT22;8790;53.590;10.002;2022-09-02T05:38:23;14.80;99.90
17346;DHT22;8790;53.590;10.002;2022-09-02T05:40:55;14.80;99.90
17346;DHT22;8790;53.590;10.002;2022-09-02T05:43:28;14.80;99.90
17346;DHT22;8790;53.590;10.002;2022-09-02T05:46:03;14.80;99.90
17346;DHT22;8790;53.590;10.002;2022-09-02T05:48:38;14.90;99.90
17346;DHT22;8790;53.590;10.002;2022-09-02T05:51:27;14.90;99.90
17346;DHT22;8790;53.590;10.002;2022-09-02T05:54:00;14.90;99.90
17346;DHT22;8790;53.590;10.002;2022-09-02T05:56:32;14.90;99.90
17346;DHT22;8790;53.590;10.002;2022-09-02T05:59:05;14.80;99.90
17346;DHT22;8790;53.590;10.002;2022-09-02T06:01:38;14.90;99.90
17346;DHT22;8790;53.590;10.002;2022-09-02T06:04:09;14.90;99.90
17346;DHT22;8790;53.590;10.002;2022-09-02T06:06:43;14.90;99.90
17346;DHT22;8790;53.590;10.002;2022-09-02T06:09:21;15.00;99.90
17346;DHT22;8790;53.590;10.002;2022-09-02T06:11:53;15.00;99.90
17346;DHT22;8790;53.590;10.002;2022-09-02T06:14:32;15.00;99.90
17346;DHT22;8790;53.590;10.002;2022-09-02T06:17:04;15.00;99.90
17346;DHT22;8790;53.590;10.002;2022-09-02T06:19:43;15.10;99.90
17346;DHT22;8790;53.590;10.002;2022-09-02T06:22:15;15.10;99.90
17346;DHT22;8790;53.590;10.002;2022-09-02T06:24:48;15.10;99.90
17346;DHT22;8790;53.590;10.002;2022-09-02T06:27:25;15.20;99.90
17346;DHT22;8790;53.590;10.002;2022-09-02T06:29:59;15.20;99.90
17346;DHT22;8790;53.590;10.002;2022-09-02T06:32:32;15.20;99.90
17346;DHT22;8790;53.590;10.002;2022-09-02T06:35:08;15.20;99.90
17346;DHT22;8790;53.590;10.002;2022-09-02T06:37:41;15.30;99.90
17346;DHT22;8790;53.590;10.002;2022-09-02T06:40:14;15.30;99.90
17346;DHT22;8790;53.590;10.002;2022-09-02T06:42:50;15.40;99.90
17346;DHT22;8790;53.590;10.002;2022-09-02T06:45:39;15.40;99.90
17346;DHT22;8790;53.590;10.002;2022-09-02T06:48:12;15.40;99.90
17346;DHT22;8790;53.590;10.002;2022-09-02T06:50:46;15.50;99.90
17346;DHT22;8790;53.590;10.002;2022-09-02T06:53:19;15.50;99.90
17346;DHT22;8790;53.590;10.002;2022-09-02T06:55:51;15.50;99.90
17346;DHT22;8790;53.590;10.002;2022-09-02T06:58:23;15.50;99.90
17346;DHT22;8790;53.590;10.002;2022-09-02T07:00:56;15.60;99.90
17346;DHT22;8790;53.590;10.002;2022-09-02T07:03:28;15.60;99.90
17346;DHT22;8790;53.590;10.002;2022-09-02T07:06:18;15.70;99.90
17346;DHT22;8790;53.590;10.002;2022-09-02T07:08:56;15.70;99.90
17346;DHT22;8790;53.590;10.002;2022-09-02T07:11:27;15.80;99.90
17346;DHT22;8790;53.590;10.002;2022-09-02T07:13:59;15.80;99.90
17346;DHT22;8790;53.590;10.002;2022-09-02T07:16:36;15.80;99.90
17346;DHT22;8790;53.590;10.002;2022-09-02T07:19:08;15.90;99.90
17346;DHT22;8790;53.590;10.002;2022-09-02T07:21:40;15.90;99.90
17346;DHT22;8790;53.590;10.002;2022-09-02T07:24:13;16.00;99.90
17346;DHT22;8790;53.590;10.002;2022-09-02T07:26:46;16.10;99.90
17346;DHT22;8790;53.590;10.002;2022-09-02T07:29:20;16.20;99.90
17346;DHT22;8790;53.590;10.002;2022-09-02T07:31:53;16.30;99.90
17346;DHT22;8790;53.590;10.002;2022-09-02T07:34:25;16.40;99.90
17346;DHT22;8790;53.590;10.002;2022-09-02T07:36:58;16.50;99.90
17346;DHT22;8790;53.590;10.002;2022-09-02T07:39:30;16.50;99.90
17346;DHT22;8790;53.590;10.002;2022-09-02T07:42:02;16.60;99.90
17346;DHT22;8790;53.590;10.002;2022-09-02T07:44:35;16.70;99.90
17346;DHT22;8790;53.590;10.002;2022-09-02T07:47:09;16.80;99.90
17346;DHT22;8790;53.590;10.002;2022-09-02T07:49:44;16.80;99.90
17346;DHT22;8790;53.590;10.002;2022-09-02T07:52:16;17.00;99.90
17346;DHT22;8790;53.590;10.002;2022-09-02T07:54:48;17.00;99.90
17346;DHT22;8790;53.590;10.002;2022-09-02T07:57:20;17.10;99.90
17346;DHT22;8790;53.590;10.002;2022-09-02T07:59:52;17.20;99.90
17346;DHT22;8790;53.590;10.002;2022-09-02T08:02:25;17.20;99.90
17346;DHT22;8790;53.590;10.002;2022-09-02T08:04:58;17.20;99.90
17346;DHT22;8790;53.590;10.002;2022-09-02T08:07:30;17.30;99.90
17346;DHT22;8790;53.590;10.002;2022-09-02T08:10:02;17.30;99.90
17346;DHT22;8790;53.590;10.002;2022-09-02T08:12:34;17.40;99.90
17346;DHT22;8790;53.590;10.002;2022-09-02T08:15:07;17.40;99.90
17346;DHT22;8790;53.590;10.002;2022-09-02T08:17:41;17.50;99.90
17346;DHT22;8790;53.590;10.002;2022-09-02T08:20:14;17.60;99.90
17346;DHT22;8790;53.590;10.002;2022-09-02T08:22:46;17.70;99.90
17346;DHT22;8790;53.590;10.002;2022-09-02T08:25:18;17.70;99.90
17346;DHT22;8790;53.590;10.002;2022-09-02T08:27:50;17.80;99.90
17346;DHT22;8790;53.590;10.002;2022-09-02T08:30:23;17.80;99.90
17346;DHT22;8790;53.590;10.002;2022-09-02T08:32:56;17.90;99.90
17346;DHT22;8790;53.590;10.002;2022-09-02T08:35:28;17.90;99.90
17346;DHT22;8790;53.590;10.002;2022-09-02T08:38:00;18.00;99.90
17346;DHT22;8790;53.590;10.002;2022-09-02T08:40:36;18.10;99.90
17346;DHT22;8790;53.590;10.002;2022-09-02T08:43:25;18.00;99.90
17346;DHT22;8790;53.590;10.002;2022-09-02T08:46:01;18.00;99.90
17346;DHT22;8790;53.590;10.002;2022-09-02T08:48:39;18.00;99.90
17346;DHT22;8790;53.590;10.002;2022-09-02T08:51:17;18.10;99.90
17346;DHT22;8790;53.590;10.002;2022-09-02T08:53:53;18.10;99.90
17346;DHT22;8790;53.590;10.002;2022-09-02T08:56:29;18.10;99.90
17346;DHT22;8790;53.590;10.002;2022-09-02T08:59:01;18.20;99.90
17346;DHT22;8790;53.590;10.002;2022-09-02T09:01:42;18.20;99.90
17346;DHT22;8790;53.590;10.002;2022-09-02T09:04:22;18.20;99.90
17346;DHT22;8790;53.590;10.002;2022-09-02T09:07:23;18.20;99.90
17346;DHT22;8790;53.590;10.002;2022-09-02T09:10:08;18.30;99.90
17346;DHT22;8790;53.590;10.002;2022-09-02T09:13:02;18.40;99.90
17346;DHT22;8790;53.590;10.002;2022-09-02T09:15:41;18.30;99.90
17346;DHT22;8790;53.590;10.002;2022-09-02T09:18:17;18.30;99.90
17346;DHT22;8790;53.590;10.002;2022-09-02T09:20:50;18.30;99.90
17346;DHT22;8790;53.590;10.002;2022-09-02T09:23:27;18.30;99.90
17346;DHT22;8790;53.590;10.002;2022-09-02T09:26:05;18.40;99.90
17346;DHT22;8790;53.590;10.002;2022-09-02T09:28:39;18.40;99.90
17346;DHT22;8790;53.590;10.002;2022-09-02T09:31:13;18.50;99.90
17346;DHT22;8790;53.590;10.002;2022-09-02T09:33:57;18.60;99.90
17346;DHT22;8790;53.590;10.002;2022-09-02T09:36:48;18.60;99.90
17346;DHT22;8790;53.590;10.002;2022-09-02T09:39:25;18.60;99.90
17346;DHT22;8790;53.590;10.002;2022-09-02T09:41:59;18.70;99.90
17346;DHT22;8790;53.590;10.002;2022-09-02T09:44:38;18.70;99.90
17346;DHT22;8790;53.590;10.002;2022-09-02T09:47:14;18.80;99.90
17346;DHT22;8790;53.590;10.002;2022-09-02T09:49:50;18.80;99.90
17346;DHT22;8790;53.590;10.002;2022-09-02T09:52:25;18.80;99.90
17346;DHT22;8790;53.590;10.002;2022-09-02T09:55:13;18.80;99.90
17346;DHT22;8790;53.590;10.002;2022-09-02T09:57:47;18.90;99.90
17346;DHT22;8790;53.590;10.002;2022-09-02T10:00:24;18.90;99.90
17346;DHT22;8790;53.590;10.002;2022-09-02T10:02:59;19.00;99.90
17346;DHT22;8790;53.590;10.002;2022-09-02T10:05:35;19.00;99.90
17346;DHT22;8790;53.590;10.002;2022-09-02T10:08:20;19.00;99.90
17346;DHT22;8790;53.590;10.002;2022-09-02T10:10:57;19.00;99.90
17346;DHT22;8790;53.590;10.002;2022-09-02T10:13:31;19.00;99.90
17346;DHT22;8790;53.590;10.002;2022-09-02T10:16:14;19.00;99.90
17346;DHT22;8790;53.590;10.002;2022-09-02T10:18:53;19.00;99.90
17346;DHT22;8790;53.590;10.002;2022-09-02T10:21:50;19.00;99.90
17346;DHT22;8790;53.590;10.002;2022-09-02T10:24:36;19.10;99.90
17346;DHT22;8790;53.590;10.002;2022-09-02T10:27:14;19.10;99.90
17346;DHT22;8790;53.590;10.002;2022-09-02T10:29:51;19.20;99.90
17346;DHT22;8790;53.590;10.002;2022-09-02T10:32:37;19.20;99.90
17346;DHT22;8790;53.590;10.002;2022-09-02T10:35:16;19.20;99.90
17346;DHT22;8790;53.590;10.002;2022-09-02T10:38:10;19.30;99.90
17346;DHT22;8790;53.590;10.002;2022-09-02T10:40:49;19.30;99.90
17346;DHT22;8790;53.590;10.002;2022-09-02T10:43:32;19.20;99.90
17346;DHT22;8790;53.590;10.002;2022-09-02T10:46:16;19.30;99.90
17346;DHT22;8790;53.590;10.002;2022-09-02T10:48:56;19.40;99.90
17346;DHT22;8790;53.590;10.002;2022-09-02T10:51:40;19.40;99.90
17346;DHT22;8790;53.590;10.002;2022-09-02T10:54:26;19.40;99.90
17346;DHT22;8790;53.590;10.002;2022-09-02T10:57:07;19.50;99.90
17346;DHT22;8790;53.590;10.002;2022-09-02T10:59:43;19.40;99.90
17346;DHT22;8790;53.590;10.002;2022-09-02T11:02:22;19.40;99.90
17346;DHT22;8790;53.590;10.002;2022-09-02T11:04:59;19.50;99.90
17346;DHT22;8790;53.590;10.002;2022-09-02T11:07:39;19.50;99.90
17346;DHT22;8790;53.590;10.002;2022-09-02T11:10:16;19.50;99.90
17346;DHT22;8790;53.590;10.002;2022-09-02T11:12:56;19.60;99.90
17346;DHT22;8790;53.590;10.002;2022-09-02T11:15:39;19.70;99.90
17346;DHT22;8790;53.590;10.002;2022-09-02T11:18:16;19.80;99.90
17346;DHT22;8790;53.590;10.002;2022-09-02T11:20:55;19.80;99.90
17346;DHT22;8790;53.590;10.002;2022-09-02T11:23:36;19.80;99.90
17346;DHT22;8790;53.590;10.002;2022-09-02T11:26:15;19.80;99.90
17346;DHT22;8790;53.590;10.002;2022-09-02T11:28:54;19.80;99.90
17346;DHT22;8790;53.590;10.002;2022-09-02T11:31:33;19.80;99.90
17346;DHT22;8790;53.590;10.002;2022-09-02T11:34:15;19.70;99.90
17346;DHT22;8790;53.590;10.002;2022-09-02T11:36:48;19.80;99.90
17346;DHT22;8790;53.590;10.002;2022-09-02T11:39:32;19.80;99.90
17346;DHT22;8790;53.590;10.002;2022-09-02T11:42:14;19.80;99.90
17346;DHT22;8790;53.590;10.002;2022-09-02T11:45:08;19.80;99.90
17346;DHT22;8790;53.590;10.002;2022-09-02T11:51:16;19.90;99.90
17346;DHT22;8790;53.590;10.002;2022-09-02T11:53:52;19.90;99.90
17346;DHT22;8790;53.590;10.002;2022-09-02T11:56:33;19.90;99.90
17346;DHT22;8790;53.590;10.002;2022-09-02T11:59:06;20.00;99.90
17346;DHT22;8790;53.590;10.002;2022-09-02T12:01:47;20.00;99.90
17346;DHT22;8790;53.590;10.002;2022-09-02T12:04:22;20.00;99.90
17346;DHT22;8790;53.590;10.002;2022-09-02T12:07:21;19.90;99.90
17346;DHT22;8790;53.590;10.002;2022-09-02T12:09:54;19.90;99.90
17346;DHT22;8790;53.590;10.002;2022-09-02T12:13:00;19.80;99.90
17346;DHT22;8790;53.590;10.002;2022-09-02T12:15:32;19.90;99.90
17346;DHT22;8790;53.590;10.002;2022-09-02T12:18:10;19.80;99.90
17346;DHT22;8790;53.590;10.002;2022-09-02T12:21:13;19.90;99.90
17346;DHT22;8790;53.590;10.002;2022-09-02T12:24:10;19.90;99.90
17346;DHT22;8790;53.590;10.002;2022-09-02T12:29:54;19.90;99.90
17346;DHT22;8790;53.590;10.002;2022-09-02T12:33:01;19.90;99.90
17346;DHT22;8790;53.590;10.002;2022-09-02T12:35:52;19.90;99.90
17346;DHT22;8790;53.590;10.002;2022-09-02T12:38:32;19.90;99.90
17346;DHT22;8790;53.590;10.002;2022-09-02T12:41:19;19.90;99.90
17346;DHT22;8790;53.590;10.002;2022-09-02T12:46:54;20.00;99.90
17346;DHT22;8790;53.590;10.002;2022-09-02T12:49:37;20.00;99.90
17346;DHT22;8790;53.590;10.002;2022-09-02T12:52:40;20.00;99.90
17346;DHT22;8790;53.590;10.002;2022-09-02T12:55:20;20.00;99.90
17346;DHT22;8790;53.590;10.002;2022-09-02T12:58:03;20.10;99.90
17346;DHT22;8790;53.590;10.002;2022-09-02T13:00:45;20.20;99.90
17346;DHT22;8790;53.590;10.002;2022-09-02T13:03:34;20.20;99.90
17346;DHT22;8790;53.590;10.002;2022-09-02T13:06:13;20.10;99.90
17346;DHT22;8790;53.590;10.002;2022-09-02T13:12:40;20.10;99.90
17346;DHT22;8790;53.590;10.002;2022-09-02T13:15:32;20.20;99.90
17346;DHT22;8790;53.590;10.002;2022-09-02T13:21:26;20.20;99.90
17346;DHT22;8790;53.590;10.002;2022-09-02T13:24:26;20.20;99.90
17346;DHT22;8790;53.590;10.002;2022-09-02T13:27:27;20.20;99.90
17346;DHT22;8790;53.590;10.002;2022-09-02T13:30:12;20.20;99.90
17346;DHT22;8790;53.590;10.002;2022-09-02T13:32:45;20.20;99.90
17346;DHT22;8790;53.590;10.002;2022-09-02T13:35:26;20.20;99.90
17346;DHT22;8790;53.590;10.002;2022-09-02T13:37:59;20.30;99.90
17346;DHT22;8790;53.590;10.002;2022-09-02T13:40:33;20.20;99.90
17346;DHT22;8790;53.590;10.002;2022-09-02T13:43:18;20.20;99.90
17346;DHT22;8790;53.590;10.002;2022-09-02T13:45:52;20.10;99.90
17346;DHT22;8790;53.590;10.002;2022-09-02T13:48:26;20.10;99.90
17346;DHT22;8790;53.590;10.002;2022-09-02T13:51:06;20.30;99.90
17346;DHT22;8790;53.590;10.002;2022-09-02T13:53:41;20.40;99.90
17346;DHT22;8790;53.590;10.002;2022-09-02T13:56:14;20.40;99.90
17346;DHT22;8790;53.590;10.002;2022-09-02T13:58:51;20.40;99.80
17346;DHT22;8790;53.590;10.002;2022-09-02T14:01:28;20.40;99.70
17346;DHT22;8790;53.590;10.002;2022-09-02T14:04:02;20.40;99.40
17346;DHT22;8790;53.590;10.002;2022-09-02T14:06:37;20.50;99.90
17346;DHT22;8790;53.590;10.002;2022-09-02T14:09:17;20.50;99.70
17346;DHT22;8790;53.590;10.002;2022-09-02T14:11:49;20.50;99.90
17346;DHT22;8790;53.590;10.002;2022-09-02T14:14:24;20.50;99.90
17346;DHT22;8790;53.590;10.002;2022-09-02T14:17:21;20.50;99.50
17346;DHT22;8790;53.590;10.002;2022-09-02T14:20:08;20.50;99.90
17346;DHT22;8790;53.590;10.002;2022-09-02T14:22:40;20.60;99.90
17346;DHT22;8790;53.590;10.002;2022-09-02T14:25:14;20.50;99.90
17346;DHT22;8790;53.590;10.002;2022-09-02T14:27:50;20.50;99.90
17346;DHT22;8790;53.590;10.002;2022-09-02T14:30:31;20.50;99.60
17346;DHT22;8790;53.590;10.002;2022-09-02T14:33:24;20.50;99.20
17346;DHT22;8790;53.590;10.002;2022-09-02T14:36:00;20.50;99.30
17346;DHT22;8790;53.590;10.002;2022-09-02T14:38:35;20.70;99.60
17346;DHT22;8790;53.590;10.002;2022-09-02T14:41:10;20.70;99.20
17346;DHT22;8790;53.590;10.002;2022-09-02T14:43:46;20.70;99.50
17346;DHT22;8790;53.590;10.002;2022-09-02T14:46:27;21.00;98.90
17346;DHT22;8790;53.590;10.002;2022-09-02T14:49:02;21.10;98.40
17346;DHT22;8790;53.590;10.002;2022-09-02T14:51:37;21.20;98.60
17346;DHT22;8790;53.590;10.002;2022-09-02T14:54:09;21.10;98.20
17346;DHT22;8790;53.590;10.002;2022-09-02T14:56:47;21.00;98.20
17346;DHT22;8790;53.590;10.002;2022-09-02T14:59:19;20.90;98.30
17346;DHT22;8790;53.590;10.002;2022-09-02T15:01:54;20.90;98.40
17346;DHT22;8790;53.590;10.002;2022-09-02T15:04:27;20.80;97.90
17346;DHT22;8790;53.590;10.002;2022-09-02T15:06:59;20.80;98.70
17346;DHT22;8790;53.590;10.002;2022-09-02T15:09:31;20.90;98.40
17346;DHT22;8790;53.590;10.002;2022-09-02T15:12:03;21.00;97.90
17346;DHT22;8790;53.590;10.002;2022-09-02T15:14:35;21.20;98.10
17346;DHT22;8790;53.590;10.002;2022-09-02T15:17:10;21.10;98.20
17346;DHT22;8790;53.590;10.002;2022-09-02T15:19:43;21.10;98.40
17346;DHT22;8790;53.590;10.002;2022-09-02T15:22:16;21.10;98.30
17346;DHT22;8790;53.590;10.002;2022-09-02T15:24:48;21.10;98.40
17346;DHT22;8790;53.590;10.002;2022-09-02T15:27:20;21.00;98.10
17346;DHT22;8790;53.590;10.002;2022-09-02T15:29:52;20.90;98.10
17346;DHT22;8790;53.590;10.002;2022-09-02T15:32:26;20.90;98.30
17346;DHT22;8790;53.590;10.002;2022-09-02T15:34:57;20.90;98.60
17346;DHT22;8790;53.590;10.002;2022-09-02T15:37:29;21.00;98.80
17346;DHT22;8790;53.590;10.002;2022-09-02T15:40:01;21.00;98.20
17346;DHT22;8790;53.590;10.002;2022-09-02T15:42:33;21.30;98.10
17346;DHT22;8790;53.590;10.002;2022-09-02T15:45:07;21.30;98.30
17346;DHT22;8790;53.590;10.002;2022-09-02T15:47:40;21.30;98.30
17346;DHT22;8790;53.590;10.002;2022-09-02T15:50:13;21.20;97.90
17346;DHT22;8790;53.590;10.002;2022-09-02T15:52:45;21.10;98.30
17346;DHT22;8790;53.590;10.002;2022-09-02T15:55:18;21.10;98.70
17346;DHT22;8790;53.590;10.002;2022-09-02T15:57:56;21.10;98.20
17346;DHT22;8790;53.590;10.002;2022-09-02T16:00:28;21.10;98.50
17346;DHT22;8790;53.590;10.002;2022-09-02T16:03:05;21.10;97.90
17346;DHT22;8790;53.590;10.002;2022-09-02T16:05:37;21.10;98.20
17346;DHT22;8790;53.590;10.002;2022-09-02T16:08:12;21.10;98.10
17346;DHT22;8790;53.590;10.002;2022-09-02T16:10:44;21.10;98.20
17346;DHT22;8790;53.590;10.002;2022-09-02T16:13:16;21.10;98.10
17346;DHT22;8790;53.590;10.002;2022-09-02T16:15:47;21.20;98.30
17346;DHT22;8790;53.590;10.002;2022-09-02T16:18:22;21.20;98.30
17346;DHT22;8790;53.590;10.002;2022-09-02T16:20:53;21.20;98.50
17346;DHT22;8790;53.590;10.002;2022-09-02T16:23:25;21.10;98.50
17346;DHT22;8790;53.590;10.002;2022-09-02T16:26:14;21.10;98.50
17346;DHT22;8790;53.590;10.002;2022-09-02T16:28:47;21.10;98.40
17346;DHT22;8790;53.590;10.002;2022-09-02T16:31:19;21.00;98.20
17346;DHT22;8790;53.590;10.002;2022-09-02T16:33:54;21.00;98.20
17346;DHT22;8790;53.590;10.002;2022-09-02T16:36:29;21.00;98.00
17346;DHT22;8790;53.590;10.002;2022-09-02T16:39:02;21.00;98.10
17346;DHT22;8790;53.590;10.002;2022-09-02T16:41:35;21.00;98.00